sensor_id;sensor_type;location;lat;lon;timestamp;pressure;altitude;pressure_sealevel;temperature;humidity
37648;BME280;23490;53.656;10.076;2023-03-14T00:01:46;99013.25;;;-145.95;94.18
37648;BME280;23490;53.656;10.076;2023-03-14T00:04:12;99017.38;;;-145.95;94.46
37648;BME280;23490;53.656;10.076;2023-03-14T00:06:37;99007.06;;;-145.95;95.33
37648;BME280;23490;53.656;10.076;2023-03-14T00:09:02;99025.63;;;-145.95;95.75
37648;BME280;23490;53.656;10.076;2023-03-14T00:11:28;99046.28;;;-145.95;96.11
37648;BME280;23490;53.656;10.076;2023-03-14T00:13:55;99021.50;;;-145.95;96.57
37648;BME280;23490;53.656;10.076;2023-03-14T00:16:20;99058.69;;;-145.95;97.37
37648;BME280;23490;53.656;10.076;2023-03-14T00:18:46;99009.13;;;-145.95;97.34
37648;BME280;23490;53.656;10.076;2023-03-14T00:21:12;99038.03;;;-145.95;97.64
37648;BME280;23490;53.656;10.076;2023-03-14T00:23:39;99009.13;;;-145.95;97.78
37648;BME280;23490;53.656;10.076;2023-03-14T00:26:09;99017.38;;;-145.95;97.73
37648;BME280;23490;53.656;10.076;2023-03-14T00:28:35;98988.47;;;-145.95;97.82
37648;BME280;23490;53.656;10.076;2023-03-14T00:31:05;99052.47;;;-145.95;98.22
37648;BME280;23490;53.656;10.076;2023-03-14T00:33:31;99000.84;;;-145.95;97.37
37648;BME280;23490;53.656;10.076;2023-03-14T00:35:59;99005.00;;;-145.95;96.19
37648;BME280;23490;53.656;10.076;2023-03-14T00:38:25;99044.22;;;-145.95;97.35
37648;BME280;23490;53.656;10.076;2023-03-14T00:40:52;98994.66;;;-145.95;96.56
37648;BME280;23490;53.656;10.076;2023-03-14T00:43:18;99046.28;;;-145.95;96.33
37648;BME280;23490;53.656;10.076;2023-03-14T00:45:46;99021.50;;;-145.95;96.02
37648;BME280;23490;53.656;10.076;2023-03-14T00:48:12;99027.69;;;-145.95;96.27
37648;BME280;23490;53.656;10.076;2023-03-14T00:50:38;99009.13;;;-145.95;95.75
37648;BME280;23490;53.656;10.076;2023-03-14T00:53:04;99033.91;;;-145.95;95.42
37648;BME280;23490;53.656;10.076;2023-03-14T00:55:29;99009.13;;;-145.95;94.78
37648;BME280;23490;53.656;10.076;2023-03-14T00:57:54;98998.78;;;-145.95;94.08
37648;BME280;23490;53.656;10.076;2023-03-14T01:00:20;99050.41;;;-145.95;94.68
37648;BME280;23490;53.656;10.076;2023-03-14T01:02:45;99058.69;;;-145.95;93.75
37648;BME280;23490;53.656;10.076;2023-03-14T01:05:10;99029.78;;;-145.95;93.19
37648;BME280;23490;53.656;10.076;2023-03-14T01:07:37;98984.34;;;-145.95;93.09
37648;BME280;23490;53.656;10.076;2023-03-14T01:10:04;99038.03;;;-145.95;92.94
37648;BME280;23490;53.656;10.076;2023-03-14T01:12:29;99038.03;;;-145.95;92.09
37648;BME280;23490;53.656;10.076;2023-03-14T01:14:54;98976.09;;;-145.95;90.78
37648;BME280;23490;53.656;10.076;2023-03-14T01:17:20;99005.00;;;-145.95;91.45
37648;BME280;23490;53.656;10.076;2023-03-14T01:19:45;98980.22;;;-145.95;90.85
37648;BME280;23490;53.656;10.076;2023-03-14T01:22:10;98961.63;;;-145.95;91.29
37648;BME280;23490;53.656;10.076;2023-03-14T01:24:37;98996.72;;;-145.95;91.52
37648;BME280;23490;53.656;10.076;2023-03-14T01:27:02;99025.63;;;-145.95;91.19
37648;BME280;23490;53.656;10.076;2023-03-14T01:29:27;98947.16;;;-145.95;90.43
37648;BME280;23490;53.656;10.076;2023-03-14T01:31:53;98955.44;;;-145.95;89.84
37648;BME280;23490;53.656;10.076;2023-03-14T01:34:18;98967.81;;;-145.95;88.98
37648;BME280;23490;53.656;10.076;2023-03-14T01:36:43;98930.66;;;-145.95;89.24
37648;BME280;23490;53.656;10.076;2023-03-14T01:39:09;98963.69;;;-145.95;88.96
37648;BME280;23490;53.656;10.076;2023-03-14T01:41:34;98951.31;;;-145.95;88.59
37648;BME280;23490;53.656;10.076;2023-03-14T01:44:00;98947.16;;;-145.95;88.43
37648;BME280;23490;53.656;10.076;2023-03-14T01:46:26;98976.09;;;-145.95;89.29
37648;BME280;23490;53.656;10.076;2023-03-14T01:49:04;99038.03;;;-145.95;89.72
37648;BME280;23490;53.656;10.076;2023-03-14T01:52:16;98967.81;;;-145.95;89.23
37648;BME280;23490;53.656;10.076;2023-03-14T01:54:35;98938.91;;;-145.95;88.68
37648;BME280;23490;53.656;10.076;2023-03-14T01:57:22;98963.69;;;-145.95;89.93
37648;BME280;23490;53.656;10.076;2023-03-14T01:59:56;98982.28;;;-145.95;90.37
37648;BME280;23490;53.656;10.076;2023-03-14T02:02:24;99009.13;;;-145.95;90.70
37648;BME280;23490;53.656;10.076;2023-03-14T02:04:51;98988.47;;;-145.95;90.91
37648;BME280;23490;53.656;10.076;2023-03-14T02:10:10;98976.09;;;-145.95;91.80
37648;BME280;23490;53.656;10.076;2023-03-14T02:12:36;98984.34;;;-145.95;92.03
37648;BME280;23490;53.656;10.076;2023-03-14T02:15:03;99017.38;;;-145.95;92.35
37648;BME280;23490;53.656;10.076;2023-03-14T02:17:28;98990.53;;;-145.95;91.92
37648;BME280;23490;53.656;10.076;2023-03-14T02:22:38;99009.13;;;-145.95;92.20
37648;BME280;23490;53.656;10.076;2023-03-14T02:27:43;99013.25;;;-145.95;93.82
37648;BME280;23490;53.656;10.076;2023-03-14T02:30:13;99009.13;;;-145.95;95.01
37648;BME280;23490;53.656;10.076;2023-03-14T02:32:41;99009.13;;;-145.95;95.53
37648;BME280;23490;53.656;10.076;2023-03-14T02:35:11;99005.00;;;-145.95;95.71
37648;BME280;23490;53.656;10.076;2023-03-14T02:37:46;99017.38;;;-145.95;96.84
37648;BME280;23490;53.656;10.076;2023-03-14T02:40:13;99038.03;;;-145.95;97.57
37648;BME280;23490;53.656;10.076;2023-03-14T02:42:38;99066.94;;;-145.95;98.46
37648;BME280;23490;53.656;10.076;2023-03-14T02:47:32;99077.25;;;-145.95;98.59
37648;BME280;23490;53.656;10.076;2023-03-14T02:50:04;99000.84;;;-145.95;97.93
37648;BME280;23490;53.656;10.076;2023-03-14T02:52:30;99069.00;;;-145.95;97.30
37648;BME280;23490;53.656;10.076;2023-03-14T02:54:55;99058.69;;;-145.95;97.76
37648;BME280;23490;53.656;10.076;2023-03-14T02:57:20;99038.03;;;-145.95;97.51
37648;BME280;23490;53.656;10.076;2023-03-14T02:59:46;99064.88;;;-145.95;97.39
37648;BME280;23490;53.656;10.076;2023-03-14T03:02:11;99023.56;;;-145.95;97.44
37648;BME280;23490;53.656;10.076;2023-03-14T03:04:36;99033.91;;;-145.95;97.58
37648;BME280;23490;53.656;10.076;2023-03-14T03:07:01;99025.63;;;-145.95;96.92
37648;BME280;23490;53.656;10.076;2023-03-14T03:09:27;99035.97;;;-145.95;97.18
37648;BME280;23490;53.656;10.076;2023-03-14T03:11:52;99042.16;;;-145.95;97.04
37648;BME280;23490;53.656;10.076;2023-03-14T03:14:17;99031.84;;;-145.95;97.33
37648;BME280;23490;53.656;10.076;2023-03-14T03:16:43;99058.69;;;-145.95;97.12
37648;BME280;23490;53.656;10.076;2023-03-14T03:19:08;99056.63;;;-145.95;97.52
37648;BME280;23490;53.656;10.076;2023-03-14T03:21:33;99011.19;;;-145.95;97.39
37648;BME280;23490;53.656;10.076;2023-03-14T03:24:00;99019.44;;;-145.95;96.42
37648;BME280;23490;53.656;10.076;2023-03-14T03:26:25;99009.13;;;-145.95;96.82
37648;BME280;23490;53.656;10.076;2023-03-14T03:28:51;99000.84;;;-145.95;96.92
37648;BME280;23490;53.656;10.076;2023-03-14T03:31:17;99011.19;;;-145.95;96.45
37648;BME280;23490;53.656;10.076;2023-03-14T03:33:43;98984.34;;;-145.95;95.85
37648;BME280;23490;53.656;10.076;2023-03-14T03:36:09;98984.34;;;-145.95;95.11
37648;BME280;23490;53.656;10.076;2023-03-14T03:38:34;99005.00;;;-145.95;95.66
37648;BME280;23490;53.656;10.076;2023-03-14T03:41:03;98926.53;;;-145.95;94.86
37648;BME280;23490;53.656;10.076;2023-03-14T03:43:28;98992.59;;;-145.95;94.54
37648;BME280;23490;53.656;10.076;2023-03-14T03:45:54;99005.00;;;-145.95;94.93
37648;BME280;23490;53.656;10.076;2023-03-14T03:48:19;98969.88;;;-145.95;95.07
37648;BME280;23490;53.656;10.076;2023-03-14T03:50:45;98998.78;;;-145.95;95.06
37648;BME280;23490;53.656;10.076;2023-03-14T03:53:11;99000.84;;;-145.95;94.66
37648;BME280;23490;53.656;10.076;2023-03-14T03:55:36;98959.56;;;-145.95;94.00
37648;BME280;23490;53.656;10.076;2023-03-14T03:58:01;98963.69;;;-145.95;94.08
37648;BME280;23490;53.656;10.076;2023-03-14T04:00:27;98984.34;;;-145.95;93.75
37648;BME280;23490;53.656;10.076;2023-03-14T04:02:52;98976.09;;;-145.95;93.97
37648;BME280;23490;53.656;10.076;2023-03-14T04:05:17;99013.25;;;-145.95;94.06
37648;BME280;23490;53.656;10.076;2023-03-14T04:07:43;99005.00;;;-145.95;94.24
37648;BME280;23490;53.656;10.076;2023-03-14T04:10:09;99005.00;;;-145.95;94.09
37648;BME280;23490;53.656;10.076;2023-03-14T04:12:35;98998.78;;;-145.95;93.88
37648;BME280;23490;53.656;10.076;2023-03-14T04:15:00;98976.09;;;-145.95;94.04
37648;BME280;23490;53.656;10.076;2023-03-14T04:17:25;98976.09;;;-145.95;93.50
37648;BME280;23490;53.656;10.076;2023-03-14T04:19:51;98990.53;;;-145.95;93.80
37648;BME280;23490;53.656;10.076;2023-03-14T04:22:18;99005.00;;;-145.95;93.82
37648;BME280;23490;53.656;10.076;2023-03-14T04:24:44;99017.38;;;-145.95;94.05
37648;BME280;23490;53.656;10.076;2023-03-14T04:27:09;99029.78;;;-145.95;94.00
37648;BME280;23490;53.656;10.076;2023-03-14T04:29:34;98984.34;;;-145.95;94.58
37648;BME280;23490;53.656;10.076;2023-03-14T04:32:00;99005.00;;;-145.95;94.37
37648;BME280;23490;53.656;10.076;2023-03-14T04:34:25;99000.84;;;-145.95;94.53
37648;BME280;23490;53.656;10.076;2023-03-14T04:36:50;99038.03;;;-145.95;94.41
37648;BME280;23490;53.656;10.076;2023-03-14T04:39:16;99025.63;;;-145.95;94.11
37648;BME280;23490;53.656;10.076;2023-03-14T04:41:41;99005.00;;;-145.95;93.91
37648;BME280;23490;53.656;10.076;2023-03-14T04:44:06;98998.78;;;-145.95;93.71
37648;BME280;23490;53.656;10.076;2023-03-14T04:46:32;99007.06;;;-145.95;93.63
37648;BME280;23490;53.656;10.076;2023-03-14T04:48:57;99021.50;;;-145.95;93.09
37648;BME280;23490;53.656;10.076;2023-03-14T04:51:23;99005.00;;;-145.95;93.05
37648;BME280;23490;53.656;10.076;2023-03-14T04:53:52;99015.31;;;-145.95;93.07
37648;BME280;23490;53.656;10.076;2023-03-14T04:56:18;99027.69;;;-145.95;92.64
37648;BME280;23490;53.656;10.076;2023-03-14T04:58:43;99038.03;;;-145.95;93.23
37648;BME280;23490;53.656;10.076;2023-03-14T05:01:09;99009.13;;;-145.95;91.90
37648;BME280;23490;53.656;10.076;2023-03-14T05:03:35;99009.13;;;-145.95;90.54
37648;BME280;23490;53.656;10.076;2023-03-14T05:06:02;99054.56;;;-145.95;89.61
37648;BME280;23490;53.656;10.076;2023-03-14T05:08:28;99052.47;;;-145.95;89.56
37648;BME280;23490;53.656;10.076;2023-03-14T05:10:54;99046.28;;;-145.95;90.34
37648;BME280;23490;53.656;10.076;2023-03-14T05:13:20;99099.97;;;-145.95;91.81
37648;BME280;23490;53.656;10.076;2023-03-14T05:15:45;99066.94;;;-145.95;91.87
37648;BME280;23490;53.656;10.076;2023-03-14T05:18:10;99066.94;;;-145.95;92.56
37648;BME280;23490;53.656;10.076;2023-03-14T05:20:36;99097.91;;;-145.95;93.80
37648;BME280;23490;53.656;10.076;2023-03-14T05:23:01;99114.44;;;-145.95;99.36
37648;BME280;23490;53.656;10.076;2023-03-14T05:25:26;99118.56;;;-145.95;100.00
37648;BME280;23490;53.656;10.076;2023-03-14T05:27:54;99170.19;;;-145.95;100.00
37648;BME280;23490;53.656;10.076;2023-03-14T05:30:20;99209.44;;;-145.95;100.00
37648;BME280;23490;53.656;10.076;2023-03-14T05:32:46;99174.31;;;-145.95;100.00
37648;BME280;23490;53.656;10.076;2023-03-14T05:35:12;99207.38;;;-145.95;100.00
37648;BME280;23490;53.656;10.076;2023-03-14T05:37:37;99201.16;;;-145.95;100.00
37648;BME280;23490;53.656;10.076;2023-03-14T05:40:03;99205.28;;;-145.95;100.00
37648;BME280;23490;53.656;10.076;2023-03-14T05:42:31;99203.22;;;-145.95;100.00
37648;BME280;23490;53.656;10.076;2023-03-14T05:44:57;99180.50;;;-145.95;100.00
37648;BME280;23490;53.656;10.076;2023-03-14T05:47:22;99223.88;;;-145.95;100.00
37648;BME280;23490;53.656;10.076;2023-03-14T05:49:48;99236.28;;;-145.95;100.00
37648;BME280;23490;53.656;10.076;2023-03-14T05:52:14;99186.72;;;-145.95;100.00
37648;BME280;23490;53.656;10.076;2023-03-14T05:54:39;99170.19;;;-145.95;100.00
37648;BME280;23490;53.656;10.076;2023-03-14T05:57:05;99190.84;;;-145.95;100.00
37648;BME280;23490;53.656;10.076;2023-03-14T05:59:30;99213.56;;;-145.95;100.00
37648;BME280;23490;53.656;10.076;2023-03-14T06:01:55;99174.31;;;-145.95;100.00
37648;BME280;23490;53.656;10.076;2023-03-14T06:04:21;99215.63;;;-145.95;100.00
37648;BME280;23490;53.656;10.076;2023-03-14T06:06:46;99199.09;;;-145.95;100.00
37648;BME280;23490;53.656;10.076;2023-03-14T06:09:11;99209.44;;;-145.95;100.00
37648;BME280;23490;53.656;10.076;2023-03-14T06:11:37;99188.78;;;-145.95;100.00
37648;BME280;23490;53.656;10.076;2023-03-14T06:14:02;99211.50;;;-145.95;100.00
37648;BME280;23490;53.656;10.076;2023-03-14T06:16:27;99164.00;;;-145.95;100.00
37648;BME280;23490;53.656;10.076;2023-03-14T06:18:53;99197.03;;;-145.95;100.00
37648;BME280;23490;53.656;10.076;2023-03-14T06:21:18;99207.38;;;-145.95;100.00
37648;BME280;23490;53.656;10.076;2023-03-14T06:23:45;99217.69;;;-145.95;100.00
37648;BME280;23490;53.656;10.076;2023-03-14T06:26:10;99194.97;;;-145.95;100.00
37648;BME280;23490;53.656;10.076;2023-03-14T06:28:37;99176.38;;;-145.95;100.00
37648;BME280;23490;53.656;10.076;2023-03-14T06:31:02;99199.09;;;-145.95;100.00
37648;BME280;23490;53.656;10.076;2023-03-14T06:33:28;99199.09;;;-145.95;100.00
37648;BME280;23490;53.656;10.076;2023-03-14T06:35:54;99161.94;;;-145.95;100.00
37648;BME280;23490;53.656;10.076;2023-03-14T06:38:19;99180.50;;;-145.95;100.00
37648;BME280;23490;53.656;10.076;2023-03-14T06:40:44;99219.75;;;-145.95;100.00
37648;BME280;23490;53.656;10.076;2023-03-14T06:43:09;99221.81;;;-145.95;100.00
37648;BME280;23490;53.656;10.076;2023-03-14T06:45:35;99157.81;;;-145.95;100.00
37648;BME280;23490;53.656;10.076;2023-03-14T06:48:00;99207.38;;;-145.95;100.00
37648;BME280;23490;53.656;10.076;2023-03-14T06:50:25;99112.38;;;-145.95;100.00
37648;BME280;23490;53.656;10.076;2023-03-14T06:52:51;99194.97;;;-145.95;100.00
37648;BME280;23490;53.656;10.076;2023-03-14T06:55:16;99174.31;;;-145.95;100.00
37648;BME280;23490;53.656;10.076;2023-03-14T06:57:42;99159.88;;;-145.95;100.00
37648;BME280;23490;53.656;10.076;2023-03-14T07:00:10;99124.75;;;-145.95;100.00
37648;BME280;23490;53.656;10.076;2023-03-14T07:02:36;99166.06;;;-145.95;100.00
37648;BME280;23490;53.656;10.076;2023-03-14T07:05:01;99161.94;;;-145.95;100.00
37648;BME280;23490;53.656;10.076;2023-03-14T07:07:27;99172.25;;;-145.95;100.00
37648;BME280;23490;53.656;10.076;2023-03-14T07:09:52;99126.81;;;-145.95;100.00
37648;BME280;23490;53.656;10.076;2023-03-14T07:12:18;99149.53;;;-145.95;100.00
37648;BME280;23490;53.656;10.076;2023-03-14T07:14:43;99116.50;;;-145.95;100.00
37648;BME280;23490;53.656;10.076;2023-03-14T07:17:09;99149.53;;;-145.95;100.00
37648;BME280;23490;53.656;10.076;2023-03-14T07:19:34;99141.28;;;-145.95;100.00
37648;BME280;23490;53.656;10.076;2023-03-14T07:21:59;99147.47;;;-145.95;100.00
37648;BME280;23490;53.656;10.076;2023-03-14T07:24:25;99149.53;;;-145.95;100.00
37648;BME280;23490;53.656;10.076;2023-03-14T07:26:50;99120.63;;;-145.95;100.00
37648;BME280;23490;53.656;10.076;2023-03-14T07:29:15;99124.75;;;-145.95;100.00
37648;BME280;23490;53.656;10.076;2023-03-14T07:31:41;99104.09;;;-145.95;100.00
37648;BME280;23490;53.656;10.076;2023-03-14T07:34:06;99104.09;;;-145.95;100.00
37648;BME280;23490;53.656;10.076;2023-03-14T07:36:32;99139.22;;;-145.95;100.00
37648;BME280;23490;53.656;10.076;2023-03-14T07:38:57;99120.63;;;-145.95;100.00
37648;BME280;23490;53.656;10.076;2023-03-14T07:41:22;99083.47;;;-145.95;100.00
37648;BME280;23490;53.656;10.076;2023-03-14T07:43:48;99108.25;;;-145.95;100.00
37648;BME280;23490;53.656;10.076;2023-03-14T07:46:14;99099.97;;;-145.95;100.00
37648;BME280;23490;53.656;10.076;2023-03-14T07:48:40;99062.81;;;-145.95;100.00
37648;BME280;23490;53.656;10.076;2023-03-14T07:51:05;99141.28;;;-145.95;100.00
37648;BME280;23490;53.656;10.076;2023-03-14T07:53:31;99164.00;;;-145.95;100.00
37648;BME280;23490;53.656;10.076;2023-03-14T07:55:56;99166.06;;;-145.95;100.00
37648;BME280;23490;53.656;10.076;2023-03-14T07:58:22;99174.31;;;-145.95;100.00
37648;BME280;23490;53.656;10.076;2023-03-14T08:00:48;99192.91;;;-145.95;100.00
37648;BME280;23490;53.656;10.076;2023-03-14T08:03:14;99149.53;;;-145.95;100.00
37648;BME280;23490;53.656;10.076;2023-03-14T08:05:39;99178.44;;;-145.95;100.00
37648;BME280;23490;53.656;10.076;2023-03-14T08:08:05;99157.81;;;-145.95;100.00
37648;BME280;23490;53.656;10.076;2023-03-14T08:10:31;99161.94;;;-145.95;100.00
37648;BME280;23490;53.656;10.076;2023-03-14T08:12:58;99097.91;;;-145.95;100.00
37648;BME280;23490;53.656;10.076;2023-03-14T08:15:25;99149.53;;;-145.95;100.00
37648;BME280;23490;53.656;10.076;2023-03-14T08:17:50;99108.25;;;-145.95;100.00
37648;BME280;23490;53.656;10.076;2023-03-14T08:20:20;99099.97;;;-145.95;100.00
37648;BME280;23490;53.656;10.076;2023-03-14T08:22:46;99153.66;;;-145.95;100.00
37648;BME280;23490;53.656;10.076;2023-03-14T08:25:13;99062.81;;;-145.95;100.00
37648;BME280;23490;53.656;10.076;2023-03-14T08:27:38;99071.06;;;-145.95;100.00
37648;BME280;23490;53.656;10.076;2023-03-14T08:30:09;99058.69;;;-145.95;100.00
37648;BME280;23490;53.656;10.076;2023-03-14T08:32:35;99137.16;;;-145.95;100.00
37648;BME280;23490;53.656;10.076;2023-03-14T08:35:00;99085.53;;;-145.95;100.00
37648;BME280;23490;53.656;10.076;2023-03-14T08:37:26;99079.34;;;-145.95;100.00
37648;BME280;23490;53.656;10.076;2023-03-14T08:39:52;99073.13;;;-145.95;100.00
37648;BME280;23490;53.656;10.076;2023-03-14T08:42:17;99050.41;;;-145.95;100.00
37648;BME280;23490;53.656;10.076;2023-03-14T08:44:43;99062.81;;;-145.95;100.00
37648;BME280;23490;53.656;10.076;2023-03-14T08:47:09;99069.00;;;-145.95;100.00
37648;BME280;23490;53.656;10.076;2023-03-14T08:49:34;99060.75;;;-145.95;100.00
37648;BME280;23490;53.656;10.076;2023-03-14T08:52:01;99050.41;;;-145.95;100.00
37648;BME280;23490;53.656;10.076;2023-03-14T08:54:27;99095.84;;;-145.95;100.00
37648;BME280;23490;53.656;10.076;2023-03-14T08:56:52;99052.47;;;-145.95;100.00
37648;BME280;23490;53.656;10.076;2023-03-14T08:59:18;99108.25;;;-145.95;100.00
37648;BME280;23490;53.656;10.076;2023-03-14T09:01:43;99066.94;;;-145.95;100.00
37648;BME280;23490;53.656;10.076;2023-03-14T09:04:08;99104.09;;;-145.95;100.00
37648;BME280;23490;53.656;10.076;2023-03-14T09:06:34;99066.94;;;-145.95;100.00
37648;BME280;23490;53.656;10.076;2023-03-14T09:09:00;99095.84;;;-145.95;100.00
37648;BME280;23490;53.656;10.076;2023-03-14T09:11:26;99089.66;;;-145.95;100.00
37648;BME280;23490;53.656;10.076;2023-03-14T09:13:51;99108.25;;;-145.95;100.00
37648;BME280;23490;53.656;10.076;2023-03-14T09:16:16;99116.50;;;-145.95;100.00
37648;BME280;23490;53.656;10.076;2023-03-14T09:18:42;99099.97;;;-145.95;100.00
37648;BME280;23490;53.656;10.076;2023-03-14T09:21:07;99075.19;;;-145.95;100.00
37648;BME280;23490;53.656;10.076;2023-03-14T09:23:33;99087.59;;;-145.95;100.00
37648;BME280;23490;53.656;10.076;2023-03-14T09:25:59;99073.13;;;-145.95;100.00
37648;BME280;23490;53.656;10.076;2023-03-14T09:28:25;99104.09;;;-145.95;100.00
37648;BME280;23490;53.656;10.076;2023-03-14T09:30:50;99112.38;;;-145.95;100.00
37648;BME280;23490;53.656;10.076;2023-03-14T09:33:16;99128.88;;;-145.95;100.00
37648;BME280;23490;53.656;10.076;2023-03-14T09:35:42;99099.97;;;-145.95;100.00
37648;BME280;23490;53.656;10.076;2023-03-14T09:38:07;99170.19;;;-145.95;100.00
37648;BME280;23490;53.656;10.076;2023-03-14T09:40:36;99137.16;;;-145.95;100.00
37648;BME280;23490;53.656;10.076;2023-03-14T09:43:03;99149.53;;;-145.95;100.00
37648;BME280;23490;53.656;10.076;2023-03-14T09:45:36;99104.09;;;-145.95;100.00
37648;BME280;23490;53.656;10.076;2023-03-14T09:48:04;99137.16;;;-145.95;100.00
37648;BME280;23490;53.656;10.076;2023-03-14T09:50:37;99116.50;;;-145.95;100.00
37648;BME280;23490;53.656;10.076;2023-03-14T09:53:08;99126.81;;;-145.95;100.00
37648;BME280;23490;53.656;10.076;2023-03-14T09:55:34;99128.88;;;-145.95;100.00
37648;BME280;23490;53.656;10.076;2023-03-14T09:58:04;99192.91;;;-145.95;100.00
37648;BME280;23490;53.656;10.076;2023-03-14T10:00:35;99180.50;;;-145.95;100.00
37648;BME280;23490;53.656;10.076;2023-03-14T10:05:41;99256.94;;;-145.95;100.00
37648;BME280;23490;53.656;10.076;2023-03-14T10:08:09;99275.50;;;-145.95;100.00
37648;BME280;23490;53.656;10.076;2023-03-14T10:10:35;99298.22;;;-145.95;100.00
37648;BME280;23490;53.656;10.076;2023-03-14T10:13:17;99248.66;;;-145.95;100.00
37648;BME280;23490;53.656;10.076;2023-03-14T10:15:51;99308.56;;;-145.95;100.00
37648;BME280;23490;53.656;10.076;2023-03-14T10:18:16;99298.22;;;-145.95;100.00
37648;BME280;23490;53.656;10.076;2023-03-14T10:20:44;99362.25;;;-145.95;100.00
37648;BME280;23490;53.656;10.076;2023-03-14T10:25:44;99364.31;;;-145.95;100.00
37648;BME280;23490;53.656;10.076;2023-03-14T10:28:34;99368.44;;;-145.95;100.00
37648;BME280;23490;53.656;10.076;2023-03-14T10:31:02;99409.75;;;-145.95;100.00
37648;BME280;23490;53.656;10.076;2023-03-14T10:33:31;99420.06;;;-145.95;100.00
37648;BME280;23490;53.656;10.076;2023-03-14T10:35:59;99442.78;;;-145.95;100.00
37648;BME280;23490;53.656;10.076;2023-03-14T10:38:28;99444.84;;;-145.95;100.00
37648;BME280;23490;53.656;10.076;2023-03-14T10:40:55;99463.44;;;-145.95;100.00
37648;BME280;23490;53.656;10.076;2023-03-14T10:43:35;99442.78;;;-145.95;100.00
37648;BME280;23490;53.656;10.076;2023-03-14T10:46:08;99484.09;;;-145.95;100.00
37648;BME280;23490;53.656;10.076;2023-03-14T10:48:36;99471.69;;;-145.95;100.00
37648;BME280;23490;53.656;10.076;2023-03-14T10:51:09;99502.69;;;-145.95;100.00
37648;BME280;23490;53.656;10.076;2023-03-14T10:53:55;99500.63;;;-145.95;100.00
37648;BME280;23490;53.656;10.076;2023-03-14T10:56:23;99513.00;;;-145.95;100.00
37648;BME280;23490;53.656;10.076;2023-03-14T10:58:57;99541.91;;;-145.95;100.00
37648;BME280;23490;53.656;10.076;2023-03-14T11:01:46;99529.53;;;-145.95;100.00
37648;BME280;23490;53.656;10.076;2023-03-14T11:10:14;99548.13;;;-145.95;100.00
37648;BME280;23490;53.656;10.076;2023-03-14T11:21:21;99572.91;;;-145.95;100.00
37648;BME280;23490;53.656;10.076;2023-03-14T11:24:12;99498.56;;;-145.95;100.00
37648;BME280;23490;53.656;10.076;2023-03-14T11:26:50;99562.56;;;-145.95;100.00
37648;BME280;23490;53.656;10.076;2023-03-14T11:31:44;99570.84;;;-145.95;100.00
37648;BME280;23490;53.656;10.076;2023-03-14T11:36:39;99562.56;;;-145.95;100.00
37648;BME280;23490;53.656;10.076;2023-03-14T11:39:12;99529.53;;;-145.95;100.00
37648;BME280;23490;53.656;10.076;2023-03-14T11:41:51;99525.41;;;-145.95;99.66
37648;BME280;23490;53.656;10.076;2023-03-14T11:46:50;99513.00;;;-145.95;99.32
37648;BME280;23490;53.656;10.076;2023-03-14T11:49:38;99494.41;;;-145.95;94.52
37648;BME280;23490;53.656;10.076;2023-03-14T11:52:14;99533.66;;;-145.95;93.78
37648;BME280;23490;53.656;10.076;2023-03-14T11:54:56;99519.22;;;-145.95;89.52
37648;BME280;23490;53.656;10.076;2023-03-14T11:57:23;99496.47;;;-145.95;88.37
37648;BME280;23490;53.656;10.076;2023-03-14T12:00:42;99504.75;;;-145.95;85.43
37648;BME280;23490;53.656;10.076;2023-03-14T12:06:32;99498.56;;;-145.95;87.51
37648;BME280;23490;53.656;10.076;2023-03-14T12:09:03;99510.94;;;-145.95;88.23
37648;BME280;23490;53.656;10.076;2023-03-14T12:11:34;99533.66;;;-145.95;87.24
37648;BME280;23490;53.656;10.076;2023-03-14T12:14:01;99455.19;;;-145.95;89.49
37648;BME280;23490;53.656;10.076;2023-03-14T12:16:32;99459.31;;;-145.95;89.83
37648;BME280;23490;53.656;10.076;2023-03-14T12:19:34;99469.63;;;-145.95;87.79
37648;BME280;23490;53.656;10.076;2023-03-14T12:22:05;99459.31;;;-145.95;87.46
37648;BME280;23490;53.656;10.076;2023-03-14T12:24:35;99490.28;;;-145.95;86.13
37648;BME280;23490;53.656;10.076;2023-03-14T12:27:05;99463.44;;;-145.95;85.17
37648;BME280;23490;53.656;10.076;2023-03-14T12:29:31;99459.31;;;-145.95;85.33
37648;BME280;23490;53.656;10.076;2023-03-14T12:34:39;99442.78;;;-145.95;89.01
37648;BME280;23490;53.656;10.076;2023-03-14T12:45:22;99457.25;;;-145.95;86.08
37648;BME280;23490;53.656;10.076;2023-03-14T12:50:24;99442.78;;;-145.95;84.62
37648;BME280;23490;53.656;10.076;2023-03-14T12:55:58;99413.88;;;-145.95;88.24
37648;BME280;23490;53.656;10.076;2023-03-14T12:58:39;99463.44;;;-145.95;85.53
37648;BME280;23490;53.656;10.076;2023-03-14T13:01:15;99521.28;;;-145.95;88.18
37648;BME280;23490;53.656;10.076;2023-03-14T13:03:53;99467.56;;;-145.95;84.84
37648;BME280;23490;53.656;10.076;2023-03-14T13:06:47;99451.06;;;-145.95;86.49
37648;BME280;23490;53.656;10.076;2023-03-14T13:11:53;99418.00;;;-145.95;86.75
37648;BME280;23490;53.656;10.076;2023-03-14T13:14:20;99428.34;;;-145.95;88.01
37648;BME280;23490;53.656;10.076;2023-03-14T13:16:49;99411.81;;;-145.95;87.87
37648;BME280;23490;53.656;10.076;2023-03-14T13:19:24;99360.19;;;-145.95;85.00
37648;BME280;23490;53.656;10.076;2023-03-14T13:21:56;99368.44;;;-145.95;79.61
37648;BME280;23490;53.656;10.076;2023-03-14T13:24:26;99351.91;;;-145.95;77.69
37648;BME280;23490;53.656;10.076;2023-03-14T13:26:53;99277.56;;;-145.95;76.80
37648;BME280;23490;53.656;10.076;2023-03-14T13:29:23;99236.28;;;-145.95;77.07